createdAt,value
2023-01-21T00:02:07.445Z,103293.20
2023-01-21T00:04:38.051Z,103295.20
2023-01-21T00:07:07.633Z,103304.60
2023-01-21T00:09:35.551Z,103304.20
2023-01-21T00:12:03.961Z,103305.40
2023-01-21T00:14:32.700Z,103307.40
2023-01-21T00:17:00.623Z,103310.00
2023-01-21T00:19:29.745Z,103309.60
2023-01-21T00:21:57.767Z,103309.00
2023-01-21T00:24:25.651Z,103313.60
2023-01-21T00:26:53.588Z,103322.80
2023-01-21T00:29:22.221Z,103326.60
2023-01-21T00:31:50.346Z,103330.00
2023-01-21T00:34:18.291Z,103339.40
2023-01-21T00:36:48.678Z,103342.20
2023-01-21T00:39:16.374Z,103348.20
2023-01-21T00:41:47.487Z,103346.60
2023-01-21T00:44:16.562Z,103353.20
2023-01-21T00:46:44.248Z,103353.00
2023-01-21T00:49:11.974Z,103346.80
2023-01-21T00:51:40.703Z,103353.40
2023-01-21T00:54:08.412Z,103362.20
2023-01-21T00:56:36.672Z,103361.20
2023-01-21T00:59:05.144Z,103369.20
2023-01-21T01:01:37.875Z,103370.80
2023-01-21T01:04:06.327Z,103372.60
2023-01-21T01:06:34.744Z,103377.00
2023-01-21T01:09:03.183Z,103381.00
2023-01-21T01:11:31.793Z,103380.80
2023-01-21T01:14:00.027Z,103377.80
2023-01-21T01:16:27.925Z,103381.40
2023-01-21T01:18:56.295Z,103383.00
2023-01-21T01:21:25.736Z,103381.40
2023-01-21T01:23:54.802Z,103388.20
2023-01-21T01:26:23.132Z,103396.00
2023-01-21T01:28:52.099Z,103401.00
2023-01-21T01:31:21.363Z,103410.40
2023-01-21T01:33:49.630Z,103419.80
2023-01-21T01:36:25.268Z,103426.00
2023-01-21T01:38:54.377Z,103432.80
2023-01-21T01:41:27.891Z,103436.80
2023-01-21T01:44:23.807Z,103438.60
2023-01-21T01:46:51.776Z,103448.00
2023-01-21T01:49:22.149Z,103456.00
2023-01-21T01:52:05.230Z,103454.80
2023-01-21T01:54:40.055Z,103464.40
2023-01-21T01:57:13.760Z,103463.60
2023-01-21T01:59:43.243Z,103465.80
2023-01-21T02:02:17.563Z,103471.40
2023-01-21T02:04:57.170Z,103472.20
2023-01-21T02:07:30.342Z,103476.00
2023-01-21T02:09:58.964Z,103483.80
2023-01-21T02:12:27.152Z,103481.40
2023-01-21T02:14:55.196Z,103482.00
2023-01-21T02:17:43.613Z,103485.60
2023-01-21T02:21:04.619Z,103485.40
2023-01-21T02:24:27.040Z,103484.00
2023-01-21T02:27:04.986Z,103490.80
2023-01-21T02:29:55.683Z,103489.40
2023-01-21T02:32:35.554Z,103503.00
2023-01-21T02:35:32.882Z,103505.20
2023-01-21T02:38:39.540Z,103504.20
2023-01-21T02:41:41.505Z,103508.80
2023-01-21T02:44:21.916Z,103524.60
2023-01-21T02:46:58.748Z,103528.60
2023-01-21T02:49:37.568Z,103530.40
2023-01-21T02:52:06.485Z,103537.60
2023-01-21T02:54:40.732Z,103531.40
2023-01-21T02:57:25.366Z,103535.00
2023-01-21T02:59:56.760Z,103543.00
2023-01-21T03:03:22.227Z,103551.80
2023-01-21T03:06:12.396Z,103556.40
2023-01-21T03:08:56.423Z,103560.20
2023-01-21T03:11:25.160Z,103564.80
2023-01-21T03:14:34.071Z,103569.40
2023-01-21T03:17:47.817Z,103574.60
2023-01-21T03:20:30.963Z,103574.00
2023-01-21T03:23:06.782Z,103576.60
2023-01-21T03:25:37.704Z,103580.40
2023-01-21T03:28:13.777Z,103575.00
2023-01-21T03:30:47.442Z,103574.20
2023-01-21T03:33:18.547Z,103582.80
2023-01-21T03:35:53.655Z,103587.40
2023-01-21T03:38:29.951Z,103591.40
2023-01-21T03:41:14.809Z,103601.60
2023-01-21T03:43:44.490Z,103609.60
2023-01-21T03:47:02.209Z,103611.80
2023-01-21T03:49:39.404Z,103602.60
2023-01-21T03:52:10.255Z,103607.60
2023-01-21T03:54:40.619Z,103611.40
2023-01-21T03:57:08.957Z,103620.60
2023-01-21T03:59:36.880Z,103617.60
2023-01-21T04:02:04.745Z,103621.00
2023-01-21T04:04:33.930Z,103627.20
2023-01-21T04:07:01.951Z,103631.60
2023-01-21T04:09:29.853Z,103626.00
2023-01-21T04:12:00.955Z,103621.40
2023-01-21T04:14:29.517Z,103621.40
2023-01-21T04:17:00.245Z,103624.60
2023-01-21T04:19:28.339Z,103626.20
2023-01-21T04:21:56.307Z,103625.60
2023-01-21T04:24:24.843Z,103623.00
2023-01-21T04:26:53.260Z,103618.60
2023-01-21T04:29:20.959Z,103626.80
2023-01-21T04:31:49.666Z,103629.20
2023-01-21T04:34:17.567Z,103634.40
2023-01-21T04:36:45.558Z,103631.80
2023-01-21T04:39:14.765Z,103633.00
2023-01-21T04:41:43.145Z,103640.60
2023-01-21T04:44:11.112Z,103651.60
2023-01-21T04:46:38.841Z,103655.20
2023-01-21T04:49:07.056Z,103659.80
2023-01-21T04:51:34.882Z,103667.80
2023-01-21T04:54:02.775Z,103681.20
2023-01-21T04:56:30.646Z,103690.40
2023-01-21T04:58:58.413Z,103687.00
2023-01-21T05:01:26.252Z,103687.20
2023-01-21T05:03:54.144Z,103684.40
2023-01-21T05:06:22.319Z,103690.40
2023-01-21T05:08:50.189Z,103700.40
2023-01-21T05:11:19.953Z,103695.20
2023-01-21T05:13:47.887Z,103691.80
2023-01-21T05:16:16.009Z,103688.20
2023-01-21T05:18:46.682Z,103685.20
2023-01-21T05:21:15.721Z,103684.40
2023-01-21T05:23:43.503Z,103689.80
2023-01-21T05:26:11.245Z,103687.00
2023-01-21T05:28:39.032Z,103689.00
2023-01-21T05:31:07.285Z,103690.60
2023-01-21T05:33:36.050Z,103695.20
2023-01-21T05:36:05.546Z,103705.00
2023-01-21T05:38:33.416Z,103699.20
2023-01-21T05:41:04.074Z,103698.40
2023-01-21T05:43:31.926Z,103692.60
2023-01-21T05:46:00.559Z,103693.80
2023-01-21T05:48:29.899Z,103703.20
2023-01-21T05:50:58.762Z,103709.80
2023-01-21T05:53:27.381Z,103706.00
2023-01-21T05:55:56.494Z,103711.00
2023-01-21T05:58:27.217Z,103718.40
2023-01-21T06:00:58.672Z,103719.80
2023-01-21T06:03:26.782Z,103720.20
2023-01-21T06:05:55.050Z,103722.80
2023-01-21T06:08:23.630Z,103729.00
2023-01-21T06:10:57.411Z,103729.00
2023-01-21T06:13:25.733Z,103740.20
2023-01-21T06:15:58.398Z,103744.20
2023-01-21T06:18:26.438Z,103744.80
2023-01-21T06:20:54.253Z,103743.80
2023-01-21T06:23:22.007Z,103747.20
2023-01-21T06:25:49.935Z,103755.20
2023-01-21T06:28:17.968Z,103754.20
2023-01-21T06:30:45.757Z,103759.00
2023-01-21T06:33:13.749Z,103765.00
2023-01-21T06:35:42.726Z,103769.20
2023-01-21T06:38:10.612Z,103773.40
2023-01-21T06:40:38.375Z,103779.60
2023-01-21T06:43:07.949Z,103782.00
2023-01-21T06:45:35.721Z,103784.20
2023-01-21T06:48:04.094Z,103787.60
2023-01-21T06:50:32.271Z,103794.40
2023-01-21T06:53:00.027Z,103791.80
2023-01-21T06:55:28.073Z,103797.20
2023-01-21T06:57:57.330Z,103792.60
2023-01-21T07:00:25.283Z,103805.20
2023-01-21T07:03:01.088Z,103808.00
2023-01-21T07:05:29.553Z,103804.40
2023-01-21T07:07:58.121Z,103816.80
2023-01-21T07:10:26.092Z,103822.80
2023-01-21T07:12:54.466Z,103827.20
2023-01-21T07:15:22.352Z,103828.60
2023-01-21T07:17:50.321Z,103830.00
2023-01-21T07:20:18.803Z,103837.60
2023-01-21T07:22:46.669Z,103840.40
2023-01-21T07:25:14.871Z,103839.60
2023-01-21T07:27:42.802Z,103836.20
2023-01-21T07:30:19.013Z,103846.60
2023-01-21T07:32:47.671Z,103849.40
2023-01-21T07:35:18.098Z,103858.20
2023-01-21T07:37:46.364Z,103865.00
2023-01-21T07:40:14.223Z,103861.80
2023-01-21T07:42:42.282Z,103872.20
2023-01-21T07:45:10.846Z,103876.20
2023-01-21T07:47:39.407Z,103882.40
2023-01-21T07:50:09.132Z,103887.80
2023-01-21T07:52:37.416Z,103893.60
2023-01-21T07:55:06.159Z,103897.40
2023-01-21T07:57:35.251Z,103903.60
2023-01-21T08:00:04.998Z,103910.20
2023-01-21T08:02:33.378Z,103909.20
2023-01-21T08:05:02.088Z,103918.20
2023-01-21T08:07:30.915Z,103915.00
2023-01-21T08:09:59.869Z,103923.20
2023-01-21T08:12:28.191Z,103924.60
2023-01-21T08:14:59.139Z,103927.20
2023-01-21T08:17:27.298Z,103929.80
2023-01-21T08:19:56.177Z,103925.00
2023-01-21T08:22:26.554Z,103922.40
2023-01-21T08:24:56.861Z,103922.40
2023-01-21T08:27:24.652Z,103911.80
2023-01-21T08:29:55.387Z,103914.40
2023-01-21T08:32:23.425Z,103917.20
2023-01-21T08:34:51.672Z,103926.40
2023-01-21T08:37:20.535Z,103934.80
2023-01-21T08:39:48.376Z,103932.60
2023-01-21T08:42:16.099Z,103936.60
2023-01-21T08:44:46.556Z,103934.00
2023-01-21T08:47:14.301Z,103937.80
2023-01-21T08:49:45.197Z,103939.00
2023-01-21T08:52:13.278Z,103937.60
2023-01-21T08:54:41.750Z,103946.40
2023-01-21T08:57:11.387Z,103942.40
2023-01-21T08:59:40.034Z,103943.80
2023-01-21T09:02:08.740Z,103944.20
2023-01-21T09:04:37.179Z,103948.20
2023-01-21T09:07:05.475Z,103949.80
2023-01-21T09:09:33.204Z,103956.80
2023-01-21T09:12:01.087Z,103964.20
2023-01-21T09:14:29.437Z,103962.80
2023-01-21T09:16:57.601Z,103964.60
2023-01-21T09:19:25.717Z,103964.00
2023-01-21T09:21:55.652Z,103963.00
2023-01-21T09:24:24.073Z,103963.40
2023-01-21T09:26:52.496Z,103960.20
2023-01-21T09:29:20.269Z,103961.80
2023-01-21T09:31:48.134Z,103957.00
2023-01-21T09:34:15.842Z,103957.00
2023-01-21T09:36:44.503Z,103956.60
2023-01-21T09:39:12.449Z,103957.20
2023-01-21T09:41:54.573Z,103964.40
2023-01-21T09:44:25.889Z,103975.00
2023-01-21T09:47:04.278Z,103985.00
2023-01-21T09:49:44.086Z,103989.40
2023-01-21T09:52:40.697Z,103983.00
2023-01-21T09:55:19.879Z,103981.40
2023-01-21T09:58:09.720Z,103998.00
2023-01-21T10:00:55.101Z,103999.00
2023-01-21T10:03:59.477Z,103999.00
2023-01-21T10:06:44.575Z,104002.60
2023-01-21T10:10:16.467Z,103993.80
2023-01-21T10:13:34.302Z,103991.20
2023-01-21T10:16:26.635Z,103988.40
2023-01-21T10:18:58.111Z,103987.00
2023-01-21T10:22:08.794Z,103991.20
2023-01-21T10:24:47.016Z,103994.60
2023-01-21T10:27:20.398Z,103997.60
2023-01-21T10:30:18.967Z,103992.80
2023-01-21T10:32:52.130Z,104005.00
2023-01-21T10:35:38.469Z,104003.00
2023-01-21T10:38:37.348Z,104002.80
2023-01-21T10:41:55.597Z,104002.00
2023-01-21T10:44:49.258Z,103995.40
2023-01-21T10:47:43.257Z,103979.80
2023-01-21T10:51:02.241Z,103965.00
2023-01-21T10:53:56.712Z,103967.80
2023-01-21T10:56:49.245Z,103971.20
2023-01-21T10:59:22.754Z,103966.40
2023-01-21T11:02:05.925Z,103976.00
2023-01-21T11:04:41.629Z,103981.60
2023-01-21T11:07:15.241Z,103984.60
2023-01-21T11:09:48.662Z,103986.00
2023-01-21T11:12:21.835Z,103988.00
2023-01-21T11:15:24.060Z,103987.80
2023-01-21T11:17:56.921Z,103997.20
2023-01-21T11:20:40.530Z,103993.80
2023-01-21T11:23:27.785Z,103992.80
2023-01-21T11:26:44.063Z,103985.60
2023-01-21T11:29:16.863Z,103985.40
2023-01-21T11:32:01.953Z,103982.20
2023-01-21T11:34:32.348Z,103979.80
2023-01-21T11:37:08.252Z,103981.20
2023-01-21T11:39:53.882Z,103980.20
2023-01-21T11:42:25.594Z,103981.20
2023-01-21T11:45:24.285Z,103977.40
2023-01-21T11:47:57.032Z,103973.60
2023-01-21T11:50:30.330Z,103965.60
2023-01-21T11:53:08.044Z,103962.00
2023-01-21T11:55:42.912Z,103966.80
2023-01-21T11:58:40.110Z,103968.00
2023-01-21T12:01:21.298Z,103972.80
2023-01-21T12:03:55.767Z,103975.20
2023-01-21T12:06:34.851Z,103976.60
2023-01-21T12:09:09.250Z,103981.40
2023-01-21T12:11:37.314Z,103993.40
2023-01-21T12:14:24.911Z,103997.00
2023-01-21T12:17:28.880Z,103987.00
2023-01-21T12:20:21.390Z,103982.80
2023-01-21T12:23:23.385Z,103982.80
2023-01-21T12:26:20.125Z,103986.40
2023-01-21T12:29:43.294Z,103982.80
2023-01-21T12:32:23.752Z,103986.20
2023-01-21T12:35:19.994Z,103988.40
2023-01-21T12:37:59.350Z,103990.60
2023-01-21T12:41:06.290Z,103992.60
2023-01-21T12:43:46.778Z,103998.20
2023-01-21T12:46:25.492Z,103998.60
2023-01-21T12:49:18.047Z,103994.20
2023-01-21T12:51:54.516Z,103999.60
2023-01-21T12:54:58.118Z,103993.20
2023-01-21T12:57:44.645Z,103992.80
2023-01-21T13:00:19.529Z,103987.80
2023-01-21T13:03:09.017Z,103985.60
2023-01-21T13:05:54.345Z,103984.00
2023-01-21T13:09:11.540Z,103982.60
2023-01-21T13:12:00.217Z,103977.40
2023-01-21T13:14:36.788Z,103978.40
2023-01-21T13:17:23.891Z,103978.00
2023-01-21T13:19:52.332Z,103975.00
2023-01-21T13:22:40.619Z,103981.40
2023-01-21T13:25:31.252Z,103978.00
2023-01-21T13:28:40.424Z,103970.20
2023-01-21T13:31:39.808Z,103971.40
2023-01-21T13:34:39.542Z,103981.40
2023-01-21T13:37:16.245Z,103983.00
2023-01-21T13:39:50.469Z,103984.60
2023-01-21T13:42:44.453Z,103984.00
2023-01-21T13:45:55.255Z,103977.80
2023-01-21T13:48:51.009Z,103984.80
2023-01-21T13:52:05.649Z,103994.00
2023-01-21T13:55:21.493Z,103997.80
2023-01-21T13:58:02.624Z,103998.00
2023-01-21T14:00:41.305Z,103993.20
2023-01-21T14:03:38.841Z,103996.80
2023-01-21T14:06:18.185Z,103991.00
2023-01-21T14:09:00.709Z,103983.40
2023-01-21T14:11:53.628Z,103981.00
2023-01-21T14:15:06.602Z,103985.00
2023-01-21T14:17:56.956Z,103987.20
2023-01-21T14:21:15.470Z,103989.20
2023-01-21T14:24:13.187Z,103990.40
2023-01-21T14:27:06.396Z,103988.60
2023-01-21T14:29:47.428Z,103996.40
2023-01-21T14:32:40.211Z,104000.40
2023-01-21T14:35:33.044Z,104002.40
2023-01-21T14:38:30.174Z,103997.40
2023-01-21T14:41:14.677Z,103998.20
2023-01-21T14:43:42.932Z,104010.80
2023-01-21T14:46:34.031Z,104017.80
2023-01-21T14:49:08.852Z,104014.40
2023-01-21T14:52:01.259Z,104019.60
2023-01-21T14:54:30.351Z,104023.80
2023-01-21T14:57:18.252Z,104026.00
2023-01-21T14:59:50.585Z,104028.80
2023-01-21T15:02:31.838Z,104028.20
2023-01-21T15:05:04.565Z,104026.00
2023-01-21T15:07:39.898Z,104023.40
2023-01-21T15:10:20.574Z,104023.60
2023-01-21T15:13:31.525Z,104024.60
2023-01-21T15:16:20.784Z,104019.60
2023-01-21T15:19:07.400Z,104021.20
2023-01-21T15:21:41.306Z,104021.00
2023-01-21T15:24:28.520Z,104030.20
2023-01-21T15:27:21.110Z,104025.60
2023-01-21T15:30:00.836Z,104023.40
2023-01-21T15:32:47.845Z,104027.00
2023-01-21T15:35:35.653Z,104028.80
2023-01-21T15:38:13.940Z,104032.00
2023-01-21T15:41:07.092Z,104024.40
2023-01-21T15:43:55.005Z,104021.60
2023-01-21T15:46:57.057Z,104024.40
2023-01-21T15:49:48.313Z,104037.80
2023-01-21T15:52:48.582Z,104028.00
2023-01-21T15:55:46.351Z,104031.20
2023-01-21T15:59:11.971Z,104045.00
2023-01-21T16:01:41.816Z,104056.00
2023-01-21T16:04:36.908Z,104056.20
2023-01-21T16:07:35.294Z,104067.20
2023-01-21T16:10:34.786Z,104068.60
2023-01-21T16:13:42.285Z,104065.00
2023-01-21T16:16:39.324Z,104067.60
2023-01-21T16:19:19.135Z,104070.60
2023-01-21T16:21:57.685Z,104075.20
2023-01-21T16:24:32.645Z,104080.80
2023-01-21T16:27:25.159Z,104081.40
2023-01-21T16:30:05.056Z,104085.60
2023-01-21T16:32:33.939Z,104088.00
2023-01-21T16:35:01.818Z,104094.60
2023-01-21T16:37:31.912Z,104096.20
2023-01-21T16:40:08.976Z,104094.20
2023-01-21T16:42:42.701Z,104098.00
2023-01-21T16:45:21.150Z,104098.00
2023-01-21T16:47:57.384Z,104095.00
2023-01-21T16:50:30.790Z,104088.00
2023-01-21T16:53:07.572Z,104089.60
2023-01-21T16:55:49.175Z,104087.60
2023-01-21T16:58:34.773Z,104088.40
2023-01-21T17:01:11.160Z,104086.20
2023-01-21T17:03:39.459Z,104085.20
2023-01-21T17:06:31.329Z,104087.00
2023-01-21T17:09:07.164Z,104093.20
2023-01-21T17:11:44.623Z,104095.00
2023-01-21T17:14:26.849Z,104093.20
2023-01-21T17:17:00.179Z,104097.20
2023-01-21T17:19:51.063Z,104098.60
2023-01-21T17:22:23.161Z,104098.60
2023-01-21T17:25:25.414Z,104104.40
2023-01-21T17:27:55.925Z,104111.20
2023-01-21T17:30:32.736Z,104107.60
2023-01-21T17:33:03.287Z,104110.20
2023-01-21T17:35:35.820Z,104114.20
2023-01-21T17:38:06.026Z,104112.00
2023-01-21T17:40:42.302Z,104116.20
2023-01-21T17:43:25.516Z,104117.40
2023-01-21T17:45:56.703Z,104118.60
2023-01-21T17:48:39.615Z,104116.20
2023-01-21T17:51:27.134Z,104105.60
2023-01-21T17:54:02.209Z,104102.00
2023-01-21T17:57:01.712Z,104105.20
2023-01-21T17:59:38.832Z,104120.40
2023-01-21T18:02:14.534Z,104124.20
2023-01-21T18:04:45.553Z,104129.80
2023-01-21T18:07:30.122Z,104137.00
2023-01-21T18:10:03.878Z,104144.60
2023-01-21T18:12:31.789Z,104142.00
2023-01-21T18:14:59.622Z,104142.60
2023-01-21T18:17:27.491Z,104141.60
2023-01-21T18:19:57.784Z,104141.40
2023-01-21T18:22:32.104Z,104141.20
2023-01-21T18:25:02.919Z,104139.00
2023-01-21T18:27:31.860Z,104145.20
2023-01-21T18:29:59.981Z,104148.20
2023-01-21T18:32:28.770Z,104154.60
2023-01-21T18:34:56.460Z,104158.00
2023-01-21T18:37:25.376Z,104155.40
2023-01-21T18:39:53.351Z,104156.00
2023-01-21T18:42:22.109Z,104153.40
2023-01-21T18:44:49.871Z,104154.00
2023-01-21T18:47:20.452Z,104156.00
2023-01-21T18:49:50.906Z,104152.60
2023-01-21T18:52:21.998Z,104155.20
2023-01-21T18:54:49.763Z,104157.00
2023-01-21T18:57:21.416Z,104157.80
2023-01-21T18:59:49.747Z,104152.80
2023-01-21T19:02:20.959Z,104156.00
2023-01-21T19:04:50.073Z,104150.60
2023-01-21T19:07:22.487Z,104150.00
2023-01-21T19:09:51.384Z,104151.40
2023-01-21T19:12:21.243Z,104150.20
2023-01-21T19:14:49.334Z,104150.40
2023-01-21T19:17:28.153Z,104141.60
2023-01-21T19:19:57.235Z,104143.00
2023-01-21T19:22:26.017Z,104144.80
2023-01-21T19:24:53.907Z,104145.40
2023-01-21T19:27:30.310Z,104156.40
2023-01-21T19:29:58.356Z,104160.40
2023-01-21T19:32:26.127Z,104161.00
2023-01-21T19:34:56.028Z,104157.20
2023-01-21T19:37:25.257Z,104154.20
2023-01-21T19:39:53.517Z,104150.60
2023-01-21T19:42:22.108Z,104154.80
2023-01-21T19:44:49.973Z,104158.00
2023-01-21T19:47:28.926Z,104159.80
2023-01-21T19:49:57.447Z,104156.20
2023-01-21T19:52:25.978Z,104162.80
2023-01-21T19:54:55.183Z,104160.80
2023-01-21T19:57:23.853Z,104157.80
2023-01-21T19:59:53.531Z,104155.40
2023-01-21T20:02:21.713Z,104150.40
2023-01-21T20:04:49.796Z,104153.60
2023-01-21T20:07:18.569Z,104158.80
2023-01-21T20:09:46.900Z,104155.20
2023-01-21T20:12:14.997Z,104151.00
2023-01-21T20:14:45.792Z,104160.00
2023-01-21T20:17:15.025Z,104164.80
2023-01-21T20:19:43.114Z,104175.00
2023-01-21T20:22:13.293Z,104172.80
2023-01-21T20:24:41.390Z,104172.60
2023-01-21T20:27:16.745Z,104165.80
2023-01-21T20:30:02.700Z,104175.20
2023-01-21T20:32:35.756Z,104164.80
2023-01-21T20:35:03.856Z,104164.60
2023-01-21T20:37:33.286Z,104153.80
2023-01-21T20:40:01.762Z,104153.80
2023-01-21T20:42:32.431Z,104147.60
2023-01-21T20:45:02.084Z,104148.80
2023-01-21T20:47:38.297Z,104159.60
2023-01-21T20:50:21.905Z,104163.20
2023-01-21T20:52:52.749Z,104169.40
2023-01-21T20:55:24.344Z,104174.20
2023-01-21T20:57:53.547Z,104172.60
2023-01-21T21:00:34.447Z,104181.60
2023-01-21T21:03:05.843Z,104190.00
2023-01-21T21:05:33.879Z,104192.60
2023-01-21T21:08:02.233Z,104198.00
2023-01-21T21:10:38.740Z,104195.80
2023-01-21T21:13:10.609Z,104190.20
2023-01-21T21:15:39.791Z,104204.20
2023-01-21T21:18:13.774Z,104205.60
2023-01-21T21:20:45.529Z,104202.20
2023-01-21T21:23:14.865Z,104208.40
2023-01-21T21:25:48.260Z,104209.60
2023-01-21T21:28:18.493Z,104214.20
2023-01-21T21:30:47.559Z,104215.60
2023-01-21T21:33:21.140Z,104214.60
2023-01-21T21:35:50.148Z,104216.80
2023-01-21T21:38:22.726Z,104213.80
2023-01-21T21:40:53.411Z,104221.00
2023-01-21T21:43:36.148Z,104227.60
2023-01-21T21:46:28.051Z,104226.40
2023-01-21T21:48:56.231Z,104232.60
2023-01-21T21:51:25.333Z,104241.40
2023-01-21T21:53:54.055Z,104238.60
2023-01-21T21:56:23.790Z,104234.80
2023-01-21T21:58:52.377Z,104227.40
2023-01-21T22:01:24.118Z,104223.80
2023-01-21T22:03:55.215Z,104215.80
2023-01-21T22:06:22.963Z,104217.20
2023-01-21T22:08:54.663Z,104213.60
2023-01-21T22:11:23.720Z,104220.40
2023-01-21T22:13:53.548Z,104215.40
2023-01-21T22:16:28.535Z,104216.80
2023-01-21T22:18:58.695Z,104210.60
2023-01-21T22:21:33.725Z,104210.80
2023-01-21T22:24:06.576Z,104208.80
2023-01-21T22:26:38.390Z,104208.80
2023-01-21T22:29:07.500Z,104215.80
2023-01-21T22:31:35.743Z,104224.40
2023-01-21T22:34:04.035Z,104219.40
2023-01-21T22:36:32.471Z,104216.60
2023-01-21T22:39:00.879Z,104216.60
2023-01-21T22:41:29.222Z,104218.40
2023-01-21T22:43:57.601Z,104227.00
2023-01-21T22:46:30.175Z,104228.20
2023-01-21T22:48:59.624Z,104226.80
2023-01-21T22:51:27.765Z,104227.20
2023-01-21T22:53:56.354Z,104219.80
2023-01-21T22:56:44.809Z,104219.40
2023-01-21T22:59:14.535Z,104220.60
2023-01-21T23:01:43.075Z,104221.80
2023-01-21T23:04:11.470Z,104221.60
2023-01-21T23:06:40.710Z,104212.20
2023-01-21T23:09:11.469Z,104221.60
2023-01-21T23:11:40.280Z,104225.40
2023-01-21T23:14:10.212Z,104229.20
2023-01-21T23:16:40.263Z,104232.60
2023-01-21T23:19:08.044Z,104231.60
2023-01-21T23:21:38.647Z,104231.00
2023-01-21T23:24:07.740Z,104231.20
2023-01-21T23:26:37.459Z,104227.20
2023-01-21T23:29:05.507Z,104237.20
2023-01-21T23:31:33.919Z,104241.00
2023-01-21T23:34:03.382Z,104240.40
2023-01-21T23:36:31.739Z,104228.40
2023-01-21T23:38:59.501Z,104228.80
2023-01-21T23:41:27.828Z,104225.40
2023-01-21T23:44:00.353Z,104223.60
2023-01-21T23:46:30.381Z,104211.20
2023-01-21T23:48:58.433Z,104212.60
2023-01-21T23:51:26.549Z,104212.40
2023-01-21T23:53:57.015Z,104218.40
2023-01-21T23:56:26.389Z,104217.20
2023-01-21T23:58:54.847Z,104209.80
